»·PEaware :: N101HZ PHOG-KVNY

N101HZ :: PHOG-KVNY

FLIGHT INFORMATION

Flight Status: Arrived
Operator: Privately registered:
United States
More flights under this callsign
Pilot: Chris A. (85)
Aircraft: DASSAULT AVIATION FALCON 2000
(F2TH)
More flights by this aircraft type
Origin: PHOG Kahului
United States
Destination: KVNY Van Nuys
United States
More flights between these airports :: More routes between these airports
Route: +CLUTS R465 CIVIT R585 AUDIA CANYN FERN7
File this flight plan on PilotEdge
Remarks: PBN / A1B1D1 DOF / 180103 REG / N101HZ EET / KZAK0041 KZLA0441 RMK / TCAS
Altitude:
(Current/Filed)
43,000ft
Speed:
(Current/Filed)
399kts
Departed: 03-Jan-18 07:01 PM
Arrived: 03-Jan-18 08:18 PM
Distance/Time
Traveled:
2155nm/1:17
Distance/Time
To Go:
Arrived

Flight Plot

Page will automatically refresh every two minutes.

Flight plan parsing failed; only flown route is shown


Map Options




Map Legend


Flown Route
Filed Route
Departure Airport
Arrival Airport
Navaid (VOR, NDB)
Fix

Horizontal Profiles

Position Reports

Time Latitude Longitude Heading Altitude Ground
Speed
03-Jan-18 19:06 33.038655 -129.206122 76 43037ft 498kts
03-Jan-18 19:07 33.074378 -129.046255 76 43036ft 498kts
03-Jan-18 19:08 33.109783 -128.886783 76 43039ft 498kts
03-Jan-18 19:09 33.144976 -128.727223 76 43058ft 498kts
03-Jan-18 19:10 33.180065 -128.567080 76 43058ft 498kts
03-Jan-18 19:11 33.214828 -128.407364 76 43056ft 498kts
03-Jan-18 19:12 33.249516 -128.246923 76 43065ft 497kts
03-Jan-18 19:13 33.283735 -128.087571 76 43069ft 497kts
03-Jan-18 19:14 33.317966 -127.927087 76 43070ft 497kts
03-Jan-18 19:15 33.351994 -127.766459 77 43070ft 497kts
03-Jan-18 19:16 33.385705 -127.606229 77 43072ft 497kts
03-Jan-18 19:17 33.419200 -127.445925 77 43072ft 497kts
03-Jan-18 19:18 33.452603 -127.284951 77 43079ft 497kts
03-Jan-18 19:19 33.485669 -127.124471 77 43088ft 497kts
03-Jan-18 19:20 33.518631 -126.963364 77 43088ft 497kts
03-Jan-18 19:21 33.551277 -126.802659 78 43088ft 497kts
03-Jan-18 19:22 33.583719 -126.641818 78 43087ft 497kts
03-Jan-18 19:23 33.616044 -126.480395 78 43086ft 496kts
03-Jan-18 19:24 33.648038 -126.319462 78 43086ft 496kts
03-Jan-18 19:25 33.679823 -126.158405 78 43086ft 496kts
03-Jan-18 19:26 33.711483 -125.996783 78 43086ft 496kts
03-Jan-18 19:27 33.742835 -125.835549 79 43085ft 496kts
03-Jan-18 19:28 33.774055 -125.673761 79 43086ft 496kts
03-Jan-18 19:29 33.804967 -125.512363 79 43085ft 496kts
03-Jan-18 19:30 33.835668 -125.350834 79 43085ft 496kts
03-Jan-18 19:31 33.866265 -125.188569 79 43085ft 496kts
03-Jan-18 19:32 33.896526 -125.026724 79 43085ft 496kts
03-Jan-18 19:33 33.926871 -124.864426 79 43085ft 496kts
03-Jan-18 19:34 33.957453 -124.702571 79 43084ft 496kts
03-Jan-18 19:35 33.987834 -124.540808 79 43084ft 496kts
03-Jan-18 19:36 34.018082 -124.378321 80 43083ft 495kts
03-Jan-18 19:37 34.047962 -124.216385 80 43081ft 495kts
03-Jan-18 19:38 34.077726 -124.053729 80 43076ft 495kts
03-Jan-18 19:39 34.107169 -123.891512 80 43076ft 495kts
03-Jan-18 19:40 34.136383 -123.729250 80 43076ft 495kts
03-Jan-18 19:41 34.165473 -123.566343 80 43076ft 495kts
03-Jan-18 19:42 34.194242 -123.403886 80 43077ft 495kts
03-Jan-18 19:43 34.222768 -123.241385 80 43100ft 495kts
03-Jan-18 19:44 34.247822 -123.077766 87 43105ft 492kts
03-Jan-18 19:45 34.253298 -122.913584 93 43105ft 489kts
03-Jan-18 19:46 34.272801 -122.750448 73 43104ft 497kts
03-Jan-18 19:47 34.323386 -122.594527 68 43103ft 499kts
03-Jan-18 19:48 34.375576 -122.439056 68 43099ft 500kts
03-Jan-18 19:49 34.425961 -122.281737 69 43096ft 500kts
03-Jan-18 19:50 34.472994 -122.123509 71 43097ft 500kts
03-Jan-18 19:51 34.517882 -121.964160 72 43095ft 500kts
03-Jan-18 19:52 34.560233 -121.803099 73 43093ft 500kts
03-Jan-18 19:53 34.599394 -121.641545 75 43092ft 500kts
03-Jan-18 19:54 34.635478 -121.478179 76 43094ft 499kts
03-Jan-18 19:55 34.667786 -121.314401 79 43095ft 499kts
03-Jan-18 19:56 34.686448 -121.147384 89 42901ft 497kts
03-Jan-18 19:57 34.685044 -120.980492 97 41148ft 490kts
03-Jan-18 19:58 34.671922 -120.823962 101 39061ft 478kts
03-Jan-18 19:59 34.654567 -120.682258 103 37051ft 468kts
03-Jan-18 20:00 34.632323 -120.527523 104 34661ft 463kts
03-Jan-18 20:01 34.610495 -120.386261 104 32443ft 458kts
03-Jan-18 20:02 34.586350 -120.235522 104 30045ft 453kts
03-Jan-18 20:03 34.562879 -120.091830 104 27740ft 450kts
03-Jan-18 20:04 34.538361 -119.943378 104 25343ft 447kts
03-Jan-18 20:05 34.514599 -119.800324 104 22691ft 419kts
03-Jan-18 20:06 34.491828 -119.664666 104 19988ft 401kts
03-Jan-18 20:07 34.469805 -119.534739 104 17493ft 386kts
03-Jan-18 20:08 34.449279 -119.414625 104 15195ft 375kts
03-Jan-18 20:09 34.429776 -119.301302 104 12973ft 367kts
03-Jan-18 20:10 34.411720 -119.196303 104 11289ft 317kts
03-Jan-18 20:11 34.394381 -119.096637 104 9682ft 290kts
03-Jan-18 20:12 34.378723 -119.006692 104 8997ft 250kts
03-Jan-18 20:13 34.364951 -118.928231 104 9000ft 234kts
03-Jan-18 20:14 34.371338 -118.851889 66 9009ft 236kts
03-Jan-18 20:15 34.400381 -118.780977 65 8346ft 248kts
03-Jan-18 20:16 34.415744 -118.713532 90 6850ft 249kts
03-Jan-18 20:17 34.412722 -118.621572 120 5071ft 218kts
03-Jan-18 20:18 34.378200 -118.589116 137 4874ft 173kts
03-Jan-18 20:19 34.344447 -118.549821 144 4611ft 160kts
03-Jan-18 20:20 34.304265 -118.513526 140 3461ft 158kts
03-Jan-18 20:21 34.269079 -118.495920 177 2423ft 148kts
03-Jan-18 20:22 34.235958 -118.492764 175 1414ft 137kts
03-Jan-18 20:23 34.203278 -118.489755 176 807ft 50kts
03-Jan-18 20:24 34.203149 -118.488216 1 807ft 6kts
03-Jan-18 20:25 34.206372 -118.488145 1 807ft 10kts
03-Jan-18 20:26 34.206632 -118.488099 194 807ft 7kts
03-Jan-18 20:27 34.205929 -118.487009 353 807ft 1kts
03-Jan-18 20:28 34.205932 -118.487009 353 807ft 0kts
03-Jan-18 20:29 34.205932 -118.487009 353 807ft 0kts
03-Jan-18 20:30 34.205932 -118.487009 353 807ft 0kts
03-Jan-18 20:31 34.205932 -118.487009 353 807ft 0kts
03-Jan-18 20:32 34.205932 -118.487009 353 807ft 0kts
03-Jan-18 20:33 34.205932 -118.487009 353 807ft 0kts
03-Jan-18 20:34 34.205932 -118.487009 353 807ft 0kts
03-Jan-18 20:35 34.205932 -118.487009 353 807ft 0kts
03-Jan-18 20:36 34.205932 -118.487009 353 807ft 0kts
03-Jan-18 20:37 34.205932 -118.487009 353 807ft 0kts
03-Jan-18 20:38 34.205932 -118.487009 353 807ft 0kts

Navigation Log

Ident Type
Flight plan parsing failed, navigation log unavailable